createdAt,value
2017-09-25T00:00:06.199Z,93.70
2017-09-25T00:02:33.698Z,93.70
2017-09-25T00:05:01.193Z,93.70
2017-09-25T00:07:28.657Z,93.90
2017-09-25T00:09:56.318Z,94.10
2017-09-25T00:12:23.812Z,94.30
2017-09-25T00:14:51.291Z,94.20
2017-09-25T00:17:19.534Z,94.20
2017-09-25T00:19:47.035Z,94.20
2017-09-25T00:22:14.549Z,94.40
2017-09-25T00:24:42.046Z,94.50
2017-09-25T00:27:09.554Z,94.50
2017-09-25T00:29:37.072Z,94.40
2017-09-25T00:32:04.607Z,94.30
2017-09-25T00:34:33.217Z,94.30
2017-09-25T00:37:00.693Z,94.30
2017-09-25T00:39:28.240Z,94.40
2017-09-25T00:41:55.720Z,94.50
2017-09-25T00:44:23.197Z,94.70
2017-09-25T00:46:50.661Z,94.70
2017-09-25T00:49:18.224Z,94.90
2017-09-25T00:51:46.490Z,96.40
2017-09-25T00:54:14.720Z,96.90
2017-09-25T00:56:42.201Z,96.90
2017-09-25T00:59:21.839Z,97.10
2017-09-25T01:02:01.191Z,97.40
2017-09-25T01:07:34.983Z,98.20
2017-09-25T01:10:02.787Z,98.30
2017-09-25T01:12:30.329Z,98.50
2017-09-25T01:14:57.866Z,98.50
2017-09-25T01:17:26.169Z,98.40
2017-09-25T01:19:53.647Z,98.30
2017-09-25T01:22:21.119Z,98.00
2017-09-25T01:24:49.466Z,97.80
2017-09-25T01:27:16.948Z,97.80
2017-09-25T01:29:45.222Z,97.90
2017-09-25T01:32:12.905Z,97.60
2017-09-25T01:34:41.757Z,97.00
2017-09-25T01:37:09.223Z,97.00
2017-09-25T01:39:36.748Z,96.70
2017-09-25T01:42:04.274Z,96.50
2017-09-25T01:44:32.837Z,96.40
2017-09-25T01:47:01.096Z,96.60
2017-09-25T01:49:29.745Z,96.80
2017-09-25T01:51:57.220Z,96.60
2017-09-25T01:54:24.730Z,96.80
2017-09-25T01:56:53.275Z,96.50
2017-09-25T01:59:20.761Z,96.50
2017-09-25T02:01:49.027Z,96.40
2017-09-25T02:04:17.295Z,96.50
2017-09-25T02:06:44.902Z,96.40
2017-09-25T02:09:12.518Z,96.40
2017-09-25T02:11:40.769Z,96.70
2017-09-25T02:14:08.292Z,96.60
2017-09-25T02:16:35.842Z,96.70
2017-09-25T02:19:03.386Z,96.70
2017-09-25T02:21:31.676Z,96.90
2017-09-25T02:23:59.154Z,96.80
2017-09-25T02:26:26.625Z,96.90
2017-09-25T02:28:54.128Z,97.00
2017-09-25T02:31:22.373Z,97.00
2017-09-25T02:33:49.965Z,97.00
2017-09-25T02:36:18.285Z,97.10
2017-09-25T02:38:45.767Z,97.10
2017-09-25T02:41:13.258Z,97.20
2017-09-25T02:43:42.258Z,97.30
2017-09-25T02:46:10.802Z,97.30
2017-09-25T02:48:39.795Z,97.30
2017-09-25T02:51:07.314Z,97.20
2017-09-25T02:53:34.826Z,97.20
2017-09-25T02:56:02.318Z,97.30
2017-09-25T02:58:29.896Z,97.30
2017-09-25T03:00:57.395Z,97.20
2017-09-25T03:03:24.981Z,97.20
2017-09-25T03:05:53.213Z,97.10
2017-09-25T03:08:20.948Z,97.10
2017-09-25T03:10:48.457Z,97.10
2017-09-25T03:13:15.916Z,97.10
2017-09-25T03:15:44.306Z,97.20
2017-09-25T03:18:12.569Z,97.00
2017-09-25T03:20:40.051Z,96.90
2017-09-25T03:23:08.345Z,96.80
2017-09-25T03:25:35.868Z,96.80
2017-09-25T03:28:03.370Z,96.70
2017-09-25T03:30:30.860Z,96.70
2017-09-25T03:32:58.369Z,96.60
2017-09-25T03:35:26.106Z,96.70
2017-09-25T03:37:54.342Z,96.90
2017-09-25T03:40:21.828Z,96.70
2017-09-25T03:42:49.309Z,96.70
2017-09-25T03:45:17.573Z,97.10
2017-09-25T03:47:45.869Z,97.10
2017-09-25T03:50:14.091Z,96.70
2017-09-25T03:52:41.657Z,96.70
2017-09-25T03:55:09.250Z,96.70
2017-09-25T03:57:38.063Z,97.00
2017-09-25T04:00:05.935Z,97.00
2017-09-25T04:02:33.435Z,97.10
2017-09-25T04:05:00.898Z,97.10
2017-09-25T04:07:28.428Z,97.00
2017-09-25T04:09:56.227Z,97.00
2017-09-25T04:12:23.911Z,96.70
2017-09-25T04:14:52.733Z,97.10
2017-09-25T04:17:20.262Z,97.10
2017-09-25T04:19:48.609Z,97.80
2017-09-25T04:22:16.073Z,97.80
2017-09-25T04:24:43.759Z,98.10
2017-09-25T04:27:12.003Z,99.00
2017-09-25T04:29:39.467Z,99.00
2017-09-25T04:32:07.779Z,98.70
2017-09-25T04:34:36.142Z,98.70
2017-09-25T04:37:04.501Z,99.50
2017-09-25T04:39:31.967Z,99.20
2017-09-25T04:42:00.727Z,99.50
2017-09-25T04:44:28.256Z,99.50
2017-09-25T04:46:55.767Z,99.70
2017-09-25T04:49:23.487Z,99.90
2017-09-25T04:51:51.891Z,99.90
2017-09-25T04:54:19.341Z,99.90
2017-09-25T04:56:46.826Z,99.90
2017-09-25T04:59:15.118Z,99.70
2017-09-25T05:01:43.426Z,99.40
2017-09-25T05:04:11.016Z,99.40
2017-09-25T05:06:38.569Z,99.80
2017-09-25T05:09:06.093Z,99.90
2017-09-25T05:11:33.591Z,99.40
2017-09-25T05:14:01.085Z,99.20
2017-09-25T05:16:28.583Z,98.90
2017-09-25T05:18:56.084Z,98.70
2017-09-25T05:21:23.635Z,98.40
2017-09-25T05:23:51.247Z,99.00
2017-09-25T05:26:18.795Z,99.10
2017-09-25T05:28:47.077Z,98.70
2017-09-25T05:31:14.556Z,98.60
2017-09-25T05:33:42.934Z,98.40
2017-09-25T05:36:10.456Z,98.40
2017-09-25T05:38:38.755Z,99.30
2017-09-25T05:41:06.389Z,99.30
2017-09-25T05:43:33.982Z,99.70
2017-09-25T05:46:01.434Z,99.90
2017-09-25T05:48:28.933Z,99.90
2017-09-25T05:50:56.443Z,99.90
2017-09-25T05:53:23.929Z,99.90
2017-09-25T05:55:51.408Z,99.90
2017-09-25T05:58:18.900Z,99.90
2017-09-25T06:00:46.404Z,99.90
2017-09-25T06:03:14.022Z,99.90
2017-09-25T06:05:41.505Z,99.90
2017-09-25T06:08:08.990Z,99.90
2017-09-25T06:10:36.684Z,99.90
2017-09-25T06:13:04.969Z,99.90
2017-09-25T06:15:33.294Z,99.90
2017-09-25T06:18:00.873Z,99.90
2017-09-25T06:20:28.349Z,99.90
2017-09-25T06:22:56.186Z,99.90
2017-09-25T06:25:23.680Z,99.90
2017-09-25T06:27:51.943Z,99.40
2017-09-25T06:30:19.409Z,99.40
2017-09-25T06:32:47.647Z,98.50
2017-09-25T06:35:15.174Z,98.50
2017-09-25T06:37:42.794Z,98.30
2017-09-25T06:40:10.277Z,98.20
2017-09-25T06:42:38.520Z,98.20
2017-09-25T06:45:06.035Z,98.20
2017-09-25T06:47:33.722Z,98.50
2017-09-25T06:50:01.216Z,97.80
2017-09-25T06:52:29.462Z,96.80
2017-09-25T06:54:56.994Z,96.80
2017-09-25T06:57:24.510Z,96.90
2017-09-25T06:59:53.287Z,96.50
2017-09-25T07:02:20.770Z,96.50
2017-09-25T07:04:48.246Z,96.30
2017-09-25T07:07:15.766Z,96.50
2017-09-25T07:09:43.268Z,96.40
2017-09-25T07:12:10.811Z,96.40
2017-09-25T07:14:38.297Z,96.20
2017-09-25T07:17:05.791Z,96.00
2017-09-25T07:19:34.109Z,96.70
2017-09-25T07:22:02.963Z,96.60
2017-09-25T07:24:31.598Z,95.90
2017-09-25T07:26:59.114Z,95.90
2017-09-25T07:29:27.358Z,96.20
2017-09-25T07:31:54.925Z,96.20
2017-09-25T07:34:22.407Z,96.00
2017-09-25T07:36:50.634Z,95.90
2017-09-25T07:39:18.177Z,95.90
2017-09-25T07:41:45.746Z,96.00
2017-09-25T07:44:13.233Z,96.00
2017-09-25T07:46:40.764Z,95.80
2017-09-25T07:49:08.282Z,95.80
2017-09-25T07:51:35.747Z,96.00
2017-09-25T07:54:03.253Z,95.90
2017-09-25T07:56:30.843Z,95.90
2017-09-25T07:58:58.544Z,95.70
2017-09-25T08:01:26.078Z,95.70
2017-09-25T08:03:54.791Z,95.70
2017-09-25T08:06:22.842Z,95.60
2017-09-25T08:08:50.343Z,95.30
2017-09-25T08:11:17.939Z,95.10
2017-09-25T08:13:46.303Z,95.00
2017-09-25T08:16:13.818Z,95.00
2017-09-25T08:18:41.356Z,95.10
2017-09-25T08:23:42.121Z,94.80
2017-09-25T08:26:09.601Z,94.20
2017-09-25T08:28:37.181Z,93.90
2017-09-25T08:31:04.870Z,93.10
2017-09-25T08:33:33.129Z,91.90
2017-09-25T08:36:01.361Z,91.70
2017-09-25T08:38:28.867Z,91.70
2017-09-25T08:40:56.352Z,92.30
2017-09-25T08:43:24.092Z,92.30
2017-09-25T08:45:52.446Z,92.40
2017-09-25T08:48:20.008Z,92.40
2017-09-25T08:50:48.211Z,91.80
2017-09-25T08:53:16.482Z,91.50
2017-09-25T08:55:44.962Z,91.10
2017-09-25T08:58:13.296Z,91.10
2017-09-25T09:00:40.779Z,90.60
2017-09-25T09:03:08.271Z,90.00
2017-09-25T09:05:35.781Z,88.40
2017-09-25T09:08:03.324Z,89.70
2017-09-25T09:10:30.808Z,87.80
2017-09-25T09:12:58.688Z,87.80
2017-09-25T09:15:26.236Z,86.70
2017-09-25T09:17:53.716Z,89.10
2017-09-25T09:20:21.960Z,87.70
2017-09-25T09:22:49.482Z,87.70
2017-09-25T09:25:17.348Z,85.60
2017-09-25T09:27:44.864Z,87.10
2017-09-25T09:30:12.375Z,87.40
2017-09-25T09:32:39.852Z,86.40
2017-09-25T09:35:07.322Z,84.20
2017-09-25T09:37:34.890Z,87.10
2017-09-25T09:40:02.368Z,87.30
2017-09-25T09:42:30.663Z,85.40
2017-09-25T09:44:58.142Z,85.40
2017-09-25T09:47:25.634Z,84.60
2017-09-25T09:49:53.325Z,86.00
2017-09-25T09:52:20.827Z,85.40
2017-09-25T09:54:48.314Z,86.40
2017-09-25T09:57:15.872Z,86.20
2017-09-25T09:59:43.356Z,85.10
2017-09-25T10:02:10.987Z,82.00
2017-09-25T10:04:38.476Z,82.20
2017-09-25T10:07:06.758Z,80.60
2017-09-25T10:09:34.248Z,80.60
2017-09-25T10:12:01.749Z,79.40
2017-09-25T10:14:29.601Z,80.70
2017-09-25T10:16:57.072Z,78.10
2017-09-25T10:19:25.351Z,78.50
2017-09-25T10:21:52.876Z,78.50
2017-09-25T10:24:20.417Z,79.80
2017-09-25T10:26:49.238Z,80.70
2017-09-25T10:29:16.746Z,82.40
2017-09-25T10:31:44.230Z,82.80
2017-09-25T10:34:11.714Z,80.40
2017-09-25T10:36:39.202Z,82.10
2017-09-25T10:39:07.514Z,81.10
2017-09-25T10:41:35.014Z,81.10
2017-09-25T10:44:02.577Z,81.10
2017-09-25T10:46:30.099Z,80.60
2017-09-25T10:48:57.573Z,81.30
2017-09-25T10:51:25.106Z,80.50
2017-09-25T10:53:53.070Z,80.30
2017-09-25T10:56:20.554Z,80.50
2017-09-25T10:58:48.038Z,80.40
2017-09-25T11:01:16.774Z,77.30
2017-09-25T11:03:44.294Z,77.20
2017-09-25T11:06:12.638Z,79.20
2017-09-25T11:08:40.120Z,79.10
2017-09-25T11:11:07.612Z,78.30
2017-09-25T11:13:35.083Z,78.40
2017-09-25T11:16:02.603Z,77.40
2017-09-25T11:18:30.879Z,77.30
2017-09-25T11:20:59.134Z,78.30
2017-09-25T11:23:26.621Z,78.20
2017-09-25T11:25:54.895Z,79.70
2017-09-25T11:28:23.469Z,79.20
2017-09-25T11:30:51.769Z,79.00
2017-09-25T11:33:19.303Z,79.00
2017-09-25T11:35:47.638Z,75.40
2017-09-25T11:38:15.130Z,74.70
2017-09-25T11:40:42.649Z,74.90
2017-09-25T11:43:10.154Z,73.20
2017-09-25T11:45:38.407Z,74.20
2017-09-25T11:48:05.958Z,74.20
2017-09-25T11:50:33.466Z,73.60
2017-09-25T11:53:00.957Z,73.90
2017-09-25T11:55:28.457Z,72.40
2017-09-25T11:57:56.004Z,71.10
2017-09-25T12:00:23.760Z,70.60
2017-09-25T12:02:51.233Z,69.00
2017-09-25T12:05:18.845Z,69.30
2017-09-25T12:07:46.326Z,70.20
2017-09-25T12:10:16.783Z,69.10
2017-09-25T12:12:44.269Z,66.90
2017-09-25T12:15:11.766Z,65.90
2017-09-25T12:17:39.458Z,63.80
2017-09-25T12:20:06.959Z,65.00
2017-09-25T12:22:34.435Z,66.00
2017-09-25T12:25:02.026Z,66.10
2017-09-25T12:27:29.512Z,64.90
2017-09-25T12:29:57.762Z,66.00
2017-09-25T12:32:25.279Z,66.00
2017-09-25T12:34:53.009Z,65.60
2017-09-25T12:37:21.236Z,64.90
2017-09-25T12:39:48.716Z,64.90
2017-09-25T12:42:17.186Z,64.60
2017-09-25T12:44:44.657Z,65.10
2017-09-25T12:47:12.973Z,64.50
2017-09-25T12:49:40.449Z,64.50
2017-09-25T12:52:08.070Z,65.80
2017-09-25T12:54:36.403Z,66.60
2017-09-25T12:57:03.869Z,66.60
2017-09-25T12:59:31.359Z,65.10
2017-09-25T13:01:58.881Z,65.90
2017-09-25T13:04:26.378Z,65.30
2017-09-25T13:06:54.647Z,64.30
2017-09-25T13:09:22.887Z,64.70
2017-09-25T13:11:50.587Z,64.70
2017-09-25T13:14:18.811Z,65.10
2017-09-25T13:16:46.333Z,65.10
2017-09-25T13:19:13.902Z,63.70
2017-09-25T13:21:41.360Z,63.20
2017-09-25T13:24:08.877Z,60.00
2017-09-25T13:26:37.155Z,63.50
2017-09-25T13:29:04.610Z,63.50
2017-09-25T13:31:32.111Z,63.60
2017-09-25T13:33:59.571Z,63.50
2017-09-25T13:36:27.183Z,65.00
2017-09-25T13:38:54.688Z,64.20
2017-09-25T13:41:22.208Z,65.70
2017-09-25T13:43:50.453Z,70.30
2017-09-25T13:46:17.945Z,70.30
2017-09-25T13:48:46.189Z,72.10
2017-09-25T13:51:13.678Z,72.00
2017-09-25T13:53:42.196Z,71.50
2017-09-25T13:56:09.676Z,71.50
2017-09-25T14:03:43.986Z,70.60
2017-09-25T14:06:11.465Z,71.90
2017-09-25T14:08:38.945Z,72.40
2017-09-25T14:11:06.637Z,72.70
2017-09-25T14:13:34.120Z,72.30
2017-09-25T14:16:01.590Z,70.40
2017-09-25T14:18:29.139Z,69.90
2017-09-25T14:20:56.643Z,69.10
2017-09-25T14:23:24.113Z,70.00
2017-09-25T14:25:51.726Z,68.50
2017-09-25T14:28:19.218Z,69.00
2017-09-25T14:30:46.688Z,68.30
2017-09-25T14:33:14.269Z,68.40
2017-09-25T14:35:42.567Z,68.60
2017-09-25T14:38:10.138Z,68.60
2017-09-25T14:40:37.708Z,69.00
2017-09-25T14:43:05.227Z,69.30
2017-09-25T14:45:34.451Z,71.30
2017-09-25T14:48:02.070Z,71.10
2017-09-25T14:50:30.390Z,69.30
2017-09-25T14:52:57.982Z,69.30
2017-09-25T14:55:25.645Z,70.80
2017-09-25T14:57:53.107Z,70.60
2017-09-25T15:00:20.731Z,70.20
2017-09-25T15:02:48.188Z,71.30
2017-09-25T15:05:15.688Z,71.90
2017-09-25T15:07:43.194Z,71.80
2017-09-25T15:10:10.677Z,71.60
2017-09-25T15:12:38.166Z,71.50
2017-09-25T15:15:05.640Z,72.20
2017-09-25T15:17:33.889Z,71.70
2017-09-25T15:20:01.401Z,71.60
2017-09-25T15:22:28.874Z,71.10
2017-09-25T15:24:56.398Z,70.40
2017-09-25T15:27:24.631Z,70.50
2017-09-25T15:29:52.247Z,70.40
2017-09-25T15:32:19.740Z,71.20
2017-09-25T15:34:47.241Z,71.60
2017-09-25T15:37:15.767Z,72.40
2017-09-25T15:39:44.829Z,72.30
2017-09-25T15:42:12.294Z,71.70
2017-09-25T15:44:40.983Z,71.90
2017-09-25T15:47:09.277Z,72.50
2017-09-25T15:49:36.801Z,72.50
2017-09-25T15:52:05.091Z,72.30
2017-09-25T15:54:33.392Z,72.70
2017-09-25T15:57:00.890Z,72.60
2017-09-25T15:59:28.365Z,73.00
2017-09-25T16:01:56.788Z,72.30
2017-09-25T16:04:24.286Z,72.20
2017-09-25T16:06:51.758Z,73.00
2017-09-25T16:09:20.973Z,74.00
2017-09-25T16:11:48.412Z,73.80
2017-09-25T16:14:16.679Z,73.90
2017-09-25T16:16:44.144Z,73.90
2017-09-25T16:19:12.409Z,74.20
2017-09-25T16:21:39.892Z,74.10
2017-09-25T16:24:08.160Z,74.10
2017-09-25T16:26:36.413Z,74.80
2017-09-25T16:29:03.979Z,74.80
2017-09-25T16:31:31.485Z,75.10
2017-09-25T16:33:58.982Z,75.40
2017-09-25T16:36:26.664Z,76.10
2017-09-25T16:38:54.150Z,76.20
2017-09-25T16:41:21.690Z,76.40
2017-09-25T16:43:49.933Z,76.40
2017-09-25T16:46:17.404Z,76.40
2017-09-25T16:48:44.942Z,77.90
2017-09-25T16:51:12.415Z,77.00
2017-09-25T16:53:40.105Z,77.30
2017-09-25T16:56:08.337Z,77.60
2017-09-25T16:58:35.839Z,77.60
2017-09-25T17:01:04.084Z,77.60
2017-09-25T17:03:32.356Z,77.10
2017-09-25T17:05:59.871Z,77.20
2017-09-25T17:08:27.351Z,78.10
2017-09-25T17:10:54.970Z,79.00
2017-09-25T17:13:23.268Z,80.30
2017-09-25T17:15:51.573Z,80.10
2017-09-25T17:18:19.262Z,80.40
2017-09-25T17:20:46.806Z,80.90
2017-09-25T17:23:14.285Z,81.20
2017-09-25T17:25:42.569Z,81.80
2017-09-25T17:28:10.834Z,82.70
2017-09-25T17:30:38.377Z,82.70
2017-09-25T17:33:06.038Z,83.10
2017-09-25T17:35:33.731Z,83.30
2017-09-25T17:38:01.979Z,83.60
2017-09-25T17:40:29.523Z,83.60
2017-09-25T17:42:58.018Z,83.60
2017-09-25T17:45:25.580Z,83.90
2017-09-25T17:47:53.817Z,84.70
2017-09-25T17:50:21.578Z,84.70
2017-09-25T17:52:49.274Z,85.30
2017-09-25T17:55:16.802Z,85.40
2017-09-25T17:57:44.316Z,86.00
2017-09-25T18:00:12.815Z,87.00
2017-09-25T18:02:40.391Z,86.80
2017-09-25T18:05:07.866Z,87.40
2017-09-25T18:07:35.418Z,87.90
2017-09-25T18:10:02.934Z,88.40
2017-09-25T18:12:31.371Z,89.10
2017-09-25T18:14:58.866Z,89.10
2017-09-25T18:17:27.134Z,89.90
2017-09-25T18:19:55.422Z,90.20
2017-09-25T18:22:23.698Z,90.10
2017-09-25T18:24:51.984Z,90.20
2017-09-25T18:27:20.259Z,90.50
2017-09-25T18:29:48.671Z,90.70
2017-09-25T18:32:16.143Z,90.70
2017-09-25T18:34:43.783Z,90.90
2017-09-25T18:37:11.268Z,91.00
2017-09-25T18:39:39.111Z,91.00
2017-09-25T18:42:06.851Z,90.90
2017-09-25T18:44:34.326Z,91.00
2017-09-25T18:47:02.443Z,91.30
2017-09-25T18:49:29.956Z,91.60
2017-09-25T18:51:57.491Z,91.80
2017-09-25T18:54:25.893Z,92.00
2017-09-25T18:56:53.425Z,92.00
2017-09-25T18:59:21.934Z,92.40
2017-09-25T19:01:49.426Z,92.30
2017-09-25T19:04:16.942Z,92.40
2017-09-25T19:06:44.465Z,92.40
2017-09-25T19:09:12.794Z,92.60
2017-09-25T19:11:40.506Z,92.60
2017-09-25T19:14:07.978Z,92.70
2017-09-25T19:16:36.227Z,92.80
2017-09-25T19:19:03.841Z,92.80
2017-09-25T19:21:31.384Z,93.20
2017-09-25T19:23:59.814Z,93.10
2017-09-25T19:26:27.303Z,93.00
2017-09-25T19:28:55.682Z,93.20
2017-09-25T19:31:23.983Z,93.10
2017-09-25T19:33:51.485Z,93.10
2017-09-25T19:36:19.090Z,93.20
2017-09-25T19:38:47.342Z,93.30
2017-09-25T19:41:15.697Z,93.50
2017-09-25T19:43:43.215Z,93.20
2017-09-25T19:46:10.789Z,93.10
2017-09-25T19:48:44.153Z,93.10
2017-09-25T19:51:14.403Z,93.20
2017-09-25T19:53:41.927Z,93.10
2017-09-25T19:56:13.181Z,93.30
2017-09-25T19:58:53.576Z,93.40
2017-09-25T20:01:21.081Z,93.30
2017-09-25T20:03:48.552Z,93.40
2017-09-25T20:06:16.827Z,93.50
2017-09-25T20:08:45.089Z,93.50
2017-09-25T20:11:13.711Z,93.50
2017-09-25T20:13:41.216Z,93.50
2017-09-25T20:16:13.758Z,93.60
2017-09-25T20:18:41.379Z,93.60
2017-09-25T20:21:10.645Z,93.50
2017-09-25T20:23:38.163Z,93.50
2017-09-25T20:26:05.738Z,93.50
2017-09-25T20:28:33.318Z,93.50
2017-09-25T20:31:00.802Z,93.50
2017-09-25T20:33:29.061Z,93.50
2017-09-25T20:35:56.569Z,93.40
2017-09-25T20:38:24.046Z,93.50
2017-09-25T20:40:54.113Z,93.60
2017-09-25T20:46:24.138Z,93.40
2017-09-25T20:48:51.659Z,93.50
2017-09-25T20:51:19.369Z,93.70
2017-09-25T20:53:47.635Z,93.60
2017-09-25T20:56:15.175Z,93.50
2017-09-25T20:58:42.674Z,93.60
2017-09-25T21:01:10.345Z,93.60
2017-09-25T21:03:37.982Z,93.50
2017-09-25T21:06:05.463Z,93.60
2017-09-25T21:08:32.949Z,93.60
2017-09-25T21:11:00.458Z,93.60
2017-09-25T21:13:28.745Z,93.60
2017-09-25T21:15:57.230Z,93.60
2017-09-25T21:18:25.487Z,93.70
2017-09-25T21:20:53.083Z,93.60
2017-09-25T21:23:20.599Z,93.50
2017-09-25T21:25:49.694Z,93.50
2017-09-25T21:28:18.151Z,93.70
2017-09-25T21:30:45.643Z,93.70
2017-09-25T21:33:13.961Z,93.70
2017-09-25T21:35:41.522Z,93.70
2017-09-25T21:38:09.022Z,93.90
2017-09-25T21:40:36.730Z,93.90
2017-09-25T21:43:04.208Z,93.80
2017-09-25T21:45:31.759Z,93.90
2017-09-25T21:47:59.287Z,93.90
2017-09-25T21:50:27.615Z,93.70
2017-09-25T21:52:55.296Z,93.70
2017-09-25T21:55:22.780Z,93.80
2017-09-25T21:57:51.037Z,93.70
2017-09-25T22:00:18.550Z,93.70
2017-09-25T22:02:46.041Z,93.50
2017-09-25T22:05:13.751Z,93.60
2017-09-25T22:07:41.246Z,93.70
2017-09-25T22:10:08.922Z,93.70
2017-09-25T22:12:36.437Z,93.70
2017-09-25T22:15:03.940Z,93.80
2017-09-25T22:17:31.615Z,93.80
2017-09-25T22:19:59.087Z,93.70
2017-09-25T22:22:27.334Z,93.80
2017-09-25T22:24:54.921Z,93.80
2017-09-25T22:27:23.169Z,94.00
2017-09-25T22:29:50.670Z,94.00
2017-09-25T22:32:18.200Z,94.00
2017-09-25T22:34:45.714Z,94.00
2017-09-25T22:37:13.205Z,93.90
2017-09-25T22:39:40.704Z,93.90
2017-09-25T22:42:08.204Z,93.90
2017-09-25T22:44:42.339Z,93.90
2017-09-25T22:47:10.205Z,93.90
2017-09-25T22:49:37.724Z,94.00
2017-09-25T22:52:05.191Z,94.10
2017-09-25T22:54:32.685Z,94.20
2017-09-25T22:57:00.965Z,94.10
2017-09-25T22:59:28.492Z,94.10
2017-09-25T23:01:55.982Z,94.10
2017-09-25T23:04:24.223Z,94.40
2017-09-25T23:06:51.731Z,94.40
2017-09-25T23:09:21.766Z,94.40
2017-09-25T23:11:49.257Z,94.40
2017-09-25T23:14:16.780Z,94.50
2017-09-25T23:16:44.269Z,94.50
2017-09-25T23:19:11.778Z,94.50
2017-09-25T23:21:40.065Z,94.60
2017-09-25T23:24:08.622Z,94.60
2017-09-25T23:26:36.101Z,94.60
2017-09-25T23:29:03.679Z,94.70
2017-09-25T23:31:37.821Z,94.80
2017-09-25T23:34:05.289Z,94.70
2017-09-25T23:36:33.219Z,94.60
2017-09-25T23:39:00.767Z,94.70
2017-09-25T23:41:28.245Z,94.60
2017-09-25T23:43:55.760Z,94.60
2017-09-25T23:46:23.996Z,94.60
2017-09-25T23:48:51.614Z,94.60
2017-09-25T23:51:19.831Z,94.70
2017-09-25T23:53:47.323Z,94.60
2017-09-25T23:56:14.883Z,94.70
2017-09-25T23:58:42.358Z,94.70
